Time;durP1;ratioP1;P1;durP2;ratioP2;P2;SDS_P1;SDS_P2;PMS_P1;PMS_P2;Temp;Humidity;BMP_temperature;BMP_pressure;BME280_temperature;BME280_humidity;BME280_pressure;Samples;Min_cycle;Max_cycle;Signal;HPM_P1;HPM_P2
2022/11/27 00:02:12;;;;;;;14.90;11.60;;;;;;;;;;108938;1268;22539;-29
2022/11/27 00:04:43;;;;;;;14.60;11.50;;;;;;;;;;108940;1260;22543;-29
2022/11/27 00:07:12;;;;;;;14.60;11.30;;;;;;;;;;108946;1264;25219;-29
2022/11/27 00:09:43;;;;;;;15.50;11.30;;;;;;;;;;108767;1256;22761;-29
2022/11/27 00:12:14;;;;;;;14.70;11.20;;;;;;;;;;108897;1264;22533;-29
2022/11/27 00:14:43;;;;;;;15.10;11.10;;;;;;;;;;108935;1261;22581;-29
2022/11/27 00:17:13;;;;;;;14.90;10.40;;;;;;;;;;108921;1263;22548;-29
2022/11/27 00:19:44;;;;;;;14.30;11.10;;;;;;;;;;108955;1262;22550;-29
2022/11/27 00:22:13;;;;;;;14.50;10.80;;;;;;;;;;108963;1264;22556;-29
2022/11/27 00:24:44;;;;;;;13.30;10.10;;;;;;;;;;108979;1263;22510;-29
2022/11/27 00:27:13;;;;;;;15.40;11.10;;;;;;;;;;108935;1262;22560;-29
2022/11/27 00:29:44;;;;;;;14.60;10.80;;;;;;;;;;108924;1261;22543;-29
2022/11/27 00:32:13;;;;;;;14.70;11.10;;;;;;;;;;108974;1261;22577;-29
2022/11/27 00:34:42;;;;;;;15.30;11.00;;;;;;;;;;108947;1262;25416;-29
2022/11/27 00:37:13;;;;;;;14.20;10.40;;;;;;;;;;108932;1260;22543;-29
2022/11/27 00:39:46;;;;;;;14.70;11.00;;;;;;;;;;108898;1263;22609;-29
2022/11/27 00:42:17;;;;;;;13.30;10.50;;;;;;;;;;108984;1262;24304;-29
2022/11/27 00:44:46;;;;;;;13.90;10.50;;;;;;;;;;108986;1265;22550;-29
2022/11/27 00:47:15;;;;;;;14.70;10.90;;;;;;;;;;108985;1253;22538;-29
2022/11/27 00:49:45;;;;;;;13.50;10.50;;;;;;;;;;108951;1262;22604;-29
2022/11/27 00:52:14;;;;;;;14.20;10.30;;;;;;;;;;108915;1262;25273;-29
2022/11/27 00:54:42;;;;;;;14.10;10.40;;;;;;;;;;108922;1257;22683;-29
2022/11/27 00:57:13;;;;;;;15.00;10.60;;;;;;;;;;108937;1262;22541;-29
2022/11/27 00:59:44;;;;;;;13.80;10.10;;;;;;;;;;108958;1260;22483;-29
2022/11/27 01:02:16;;;;;;;13.60;10.60;;;;;;;;;;109001;1260;25341;-29
2022/11/27 01:04:48;;;;;;;14.60;10.60;;;;;;;;;;108941;1265;22554;-29
2022/11/27 01:07:17;;;;;;;14.60;10.80;;;;;;;;;;108986;1262;22717;-29
2022/11/27 01:09:48;;;;;;;12.80;10.30;;;;;;;;;;108898;1261;23285;-29
2022/11/27 01:12:22;;;;;;;14.60;11.00;;;;;;;;;;108893;1261;22522;-29
2022/11/27 01:14:53;;;;;;;13.70;10.10;;;;;;;;;;108912;1259;25613;-29
2022/11/27 01:17:24;;;;;;;13.40;10.00;;;;;;;;;;108901;1261;22537;-29
2022/11/27 01:19:54;;;;;;;14.40;10.60;;;;;;;;;;108935;1256;22683;-29
2022/11/27 01:22:23;;;;;;;14.70;10.60;;;;;;;;;;108957;1260;22621;-29
2022/11/27 01:24:52;;;;;;;14.30;10.80;;;;;;;;;;109004;1262;22547;-29
2022/11/27 01:27:24;;;;;;;14.50;10.60;;;;;;;;;;108976;1260;22671;-29
2022/11/27 01:29:55;;;;;;;14.80;10.70;;;;;;;;;;108968;1263;22545;-29
2022/11/27 01:32:26;;;;;;;13.20;9.90;;;;;;;;;;108940;1255;22678;-29
2022/11/27 01:34:55;;;;;;;13.80;10.50;;;;;;;;;;108844;1255;22529;-29
2022/11/27 01:37:25;;;;;;;13.20;10.10;;;;;;;;;;108934;1260;25440;-29
2022/11/27 01:39:54;;;;;;;13.40;10.50;;;;;;;;;;108907;1260;22520;-29
2022/11/27 01:42:23;;;;;;;14.50;10.50;;;;;;;;;;108965;1266;22587;-29
2022/11/27 01:44:55;;;;;;;14.60;10.90;;;;;;;;;;108947;1262;22551;-29
2022/11/27 01:47:37;;;;;;;14.30;10.20;;;;;;;;;;108941;1262;22542;-29
2022/11/27 01:50:14;;;;;;;13.70;9.90;;;;;;;;;;108909;1260;22657;-29
2022/11/27 01:52:48;;;;;;;13.80;10.60;;;;;;;;;;108945;1258;22496;-29
2022/11/27 01:55:27;;;;;;;14.30;10.50;;;;;;;;;;108973;1261;22501;-29
2022/11/27 01:58:01;;;;;;;14.20;10.80;;;;;;;;;;108939;1262;22526;-29
2022/11/27 02:00:30;;;;;;;13.60;10.40;;;;;;;;;;108920;1260;22608;-29
2022/11/27 02:02:58;;;;;;;13.40;9.90;;;;;;;;;;108948;1263;22577;-29
2022/11/27 02:05:29;;;;;;;13.40;9.70;;;;;;;;;;108981;1263;22679;-29
2022/11/27 02:08:02;;;;;;;13.30;10.20;;;;;;;;;;109004;1262;22550;-29
2022/11/27 02:10:48;;;;;;;14.60;10.40;;;;;;;;;;108953;1253;22691;-29
2022/11/27 02:13:28;;;;;;;13.60;9.60;;;;;;;;;;109008;1261;22534;-29
2022/11/27 02:16:07;;;;;;;14.90;10.90;;;;;;;;;;108973;1261;22547;-29
2022/11/27 02:18:44;;;;;;;14.10;10.10;;;;;;;;;;108918;1261;22549;-29
2022/11/27 02:21:24;;;;;;;13.60;10.50;;;;;;;;;;108961;1261;22547;-29
2022/11/27 02:24:32;;;;;;;12.80;10.30;;;;;;;;;;108956;1252;22693;-29
2022/11/27 02:27:33;;;;;;;14.00;10.30;;;;;;;;;;109040;1263;22501;-29
2022/11/27 02:30:08;;;;;;;15.40;11.20;;;;;;;;;;108969;1262;22536;-29
2022/11/27 02:32:40;;;;;;;14.60;11.10;;;;;;;;;;108938;1262;22788;-29
2022/11/27 02:35:17;;;;;;;13.50;10.70;;;;;;;;;;108944;1262;22489;-29
2022/11/27 02:37:50;;;;;;;14.10;10.40;;;;;;;;;;108911;1259;22574;-29
2022/11/27 02:40:29;;;;;;;13.60;10.30;;;;;;;;;;108952;1261;25498;-29
2022/11/27 02:43:04;;;;;;;14.40;10.90;;;;;;;;;;108889;1261;22667;-29
2022/11/27 02:45:39;;;;;;;14.10;10.70;;;;;;;;;;108922;1262;25322;-29
2022/11/27 02:48:14;;;;;;;14.40;11.40;;;;;;;;;;108922;1260;22565;-29
2022/11/27 02:50:46;;;;;;;14.30;10.70;;;;;;;;;;108953;1258;25225;-29
2022/11/27 02:53:19;;;;;;;13.60;10.80;;;;;;;;;;108918;1260;22554;-29
2022/11/27 02:55:52;;;;;;;13.00;10.40;;;;;;;;;;108958;1256;22691;-29
2022/11/27 02:58:27;;;;;;;14.00;10.70;;;;;;;;;;108953;1262;22604;-29
2022/11/27 03:00:57;;;;;;;13.60;11.00;;;;;;;;;;108940;1253;22633;-29
2022/11/27 03:03:31;;;;;;;14.30;11.20;;;;;;;;;;108877;1261;22549;-29
2022/11/27 03:06:08;;;;;;;14.60;11.30;;;;;;;;;;108920;1261;22555;-29
2022/11/27 03:08:45;;;;;;;15.40;11.50;;;;;;;;;;108919;1255;22542;-29
2022/11/27 03:11:16;;;;;;;14.00;11.20;;;;;;;;;;108913;1259;22561;-29
2022/11/27 03:13:49;;;;;;;14.10;11.60;;;;;;;;;;108934;1261;22786;-29
2022/11/27 03:16:27;;;;;;;14.30;11.40;;;;;;;;;;108938;1261;22624;-29
2022/11/27 03:19:07;;;;;;;14.70;10.80;;;;;;;;;;108939;1262;22534;-29
2022/11/27 03:21:40;;;;;;;15.10;11.60;;;;;;;;;;108873;1257;22543;-29
2022/11/27 03:24:11;;;;;;;14.90;11.70;;;;;;;;;;108913;1259;22590;-29
2022/11/27 03:26:42;;;;;;;14.90;11.50;;;;;;;;;;108915;1258;22698;-29
2022/11/27 03:29:19;;;;;;;15.50;11.60;;;;;;;;;;108953;1261;22512;-29
2022/11/27 03:31:48;;;;;;;14.90;11.90;;;;;;;;;;108898;1260;22613;-29
2022/11/27 03:34:17;;;;;;;15.60;11.40;;;;;;;;;;108978;1262;22606;-29
2022/11/27 03:36:49;;;;;;;15.30;11.60;;;;;;;;;;108930;1263;22623;-29
2022/11/27 03:39:21;;;;;;;15.30;11.90;;;;;;;;;;108898;1262;25366;-29
2022/11/27 03:42:02;;;;;;;15.00;12.00;;;;;;;;;;108933;1261;22597;-29
2022/11/27 03:44:43;;;;;;;15.80;11.90;;;;;;;;;;109039;1260;22510;-29
2022/11/27 03:47:29;;;;;;;15.40;12.10;;;;;;;;;;108918;1261;25240;-29
2022/11/27 03:50:16;;;;;;;16.10;12.60;;;;;;;;;;108952;1261;24216;-29
2022/11/27 03:52:58;;;;;;;14.80;12.20;;;;;;;;;;108891;1256;25296;-29
2022/11/27 03:55:35;;;;;;;14.90;11.70;;;;;;;;;;109013;1259;22565;-29
2022/11/27 03:58:07;;;;;;;15.60;12.60;;;;;;;;;;108999;1263;22588;-29
2022/11/27 04:00:44;;;;;;;16.30;13.00;;;;;;;;;;108938;1256;22676;-29
2022/11/27 04:03:14;;;;;;;15.90;12.30;;;;;;;;;;108942;1260;22541;-29
2022/11/27 04:05:45;;;;;;;15.80;12.80;;;;;;;;;;108954;1261;22561;-29
2022/11/27 04:08:14;;;;;;;15.30;11.60;;;;;;;;;;108950;1261;22541;-29
2022/11/27 04:10:43;;;;;;;15.40;12.30;;;;;;;;;;108946;1260;23813;-29
2022/11/27 04:13:14;;;;;;;16.60;12.50;;;;;;;;;;108924;1261;22545;-29
2022/11/27 04:15:43;;;;;;;15.50;12.60;;;;;;;;;;109027;1259;22479;-29
2022/11/27 04:18:12;;;;;;;16.60;12.60;;;;;;;;;;108981;1260;23851;-29
2022/11/27 04:20:43;;;;;;;16.30;12.70;;;;;;;;;;108970;1260;22587;-29
2022/11/27 04:23:14;;;;;;;16.40;12.30;;;;;;;;;;108928;1253;22483;-29
2022/11/27 04:25:45;;;;;;;15.70;12.00;;;;;;;;;;108927;1261;22593;-29
2022/11/27 04:28:16;;;;;;;17.70;13.20;;;;;;;;;;108949;1261;22617;-29
2022/11/27 04:30:49;;;;;;;15.90;12.20;;;;;;;;;;108982;1261;22576;-29
2022/11/27 04:33:18;;;;;;;15.40;11.70;;;;;;;;;;108889;1261;22548;-29
2022/11/27 04:35:50;;;;;;;16.20;12.40;;;;;;;;;;108950;1253;22537;-29
2022/11/27 04:38:22;;;;;;;15.70;11.90;;;;;;;;;;108955;1262;22547;-29
2022/11/27 04:40:54;;;;;;;16.30;12.20;;;;;;;;;;108937;1260;22486;-29
2022/11/27 04:43:26;;;;;;;15.40;12.30;;;;;;;;;;108946;1261;22529;-29
2022/11/27 04:45:57;;;;;;;15.70;12.10;;;;;;;;;;108970;1255;22517;-29
2022/11/27 04:48:28;;;;;;;16.20;12.00;;;;;;;;;;108989;1261;25261;-29
2022/11/27 04:50:59;;;;;;;17.00;12.30;;;;;;;;;;108969;1252;24343;-29
2022/11/27 04:53:30;;;;;;;15.90;12.10;;;;;;;;;;108996;1261;22553;-29
2022/11/27 04:55:59;;;;;;;15.90;12.00;;;;;;;;;;108948;1260;22539;-29
2022/11/27 04:58:28;;;;;;;16.30;12.30;;;;;;;;;;108951;1259;22539;-29
2022/11/27 05:01:00;;;;;;;16.00;12.20;;;;;;;;;;108994;1260;22545;-29
2022/11/27 05:03:29;;;;;;;15.60;11.60;;;;;;;;;;108959;1261;22555;-29
2022/11/27 05:06:01;;;;;;;14.20;11.40;;;;;;;;;;108920;1260;22567;-29
2022/11/27 05:08:32;;;;;;;15.40;12.30;;;;;;;;;;108914;1257;22539;-29
2022/11/27 05:11:04;;;;;;;15.80;11.90;;;;;;;;;;108979;1256;23145;-29
2022/11/27 05:13:33;;;;;;;15.90;11.70;;;;;;;;;;109014;1262;22607;-29
2022/11/27 05:16:06;;;;;;;15.40;11.70;;;;;;;;;;108936;1261;22541;-29
2022/11/27 05:18:35;;;;;;;16.40;11.90;;;;;;;;;;108980;1262;22545;-29
2022/11/27 05:21:08;;;;;;;16.30;11.70;;;;;;;;;;108950;1253;22974;-29
2022/11/27 05:23:39;;;;;;;15.80;12.60;;;;;;;;;;108974;1262;22717;-29
2022/11/27 05:26:08;;;;;;;14.40;11.70;;;;;;;;;;108899;1260;22554;-29
2022/11/27 05:28:37;;;;;;;15.90;11.90;;;;;;;;;;108915;1261;24216;-29
2022/11/27 05:31:06;;;;;;;15.10;11.30;;;;;;;;;;108966;1261;25264;-29
2022/11/27 05:33:35;;;;;;;15.50;12.00;;;;;;;;;;108922;1260;22600;-29
2022/11/27 05:36:08;;;;;;;16.70;11.80;;;;;;;;;;108929;1262;23006;-29
2022/11/27 05:38:39;;;;;;;15.20;11.80;;;;;;;;;;108956;1256;22543;-29
2022/11/27 05:41:11;;;;;;;16.00;12.00;;;;;;;;;;108881;1260;22536;-29
2022/11/27 05:43:45;;;;;;;15.10;12.10;;;;;;;;;;108937;1260;22558;-29
2022/11/27 05:46:22;;;;;;;15.80;12.30;;;;;;;;;;108909;1261;22530;-29
2022/11/27 05:48:56;;;;;;;16.20;12.10;;;;;;;;;;108915;1261;22540;-29
2022/11/27 05:51:27;;;;;;;16.90;11.90;;;;;;;;;;108924;1258;22568;-29
2022/11/27 05:53:56;;;;;;;16.50;12.30;;;;;;;;;;108912;1261;25221;-29
2022/11/27 05:56:28;;;;;;;16.10;11.80;;;;;;;;;;108979;1254;22543;-29
2022/11/27 05:58:59;;;;;;;15.90;11.90;;;;;;;;;;108993;1253;25398;-29
2022/11/27 06:01:28;;;;;;;16.00;11.90;;;;;;;;;;109003;1263;24433;-29
2022/11/27 06:04:00;;;;;;;15.90;12.50;;;;;;;;;;109006;1262;22564;-29
2022/11/27 06:06:30;;;;;;;16.30;12.00;;;;;;;;;;108926;1259;22661;-29
2022/11/27 06:08:59;;;;;;;17.40;13.00;;;;;;;;;;108951;1260;22582;-29
2022/11/27 06:11:28;;;;;;;17.30;12.70;;;;;;;;;;108907;1255;22548;-29
2022/11/27 06:13:57;;;;;;;15.20;11.60;;;;;;;;;;108942;1261;22738;-29
2022/11/27 06:16:28;;;;;;;16.10;12.10;;;;;;;;;;108784;1262;26495;-29
2022/11/27 06:18:56;;;;;;;16.30;12.20;;;;;;;;;;108976;1262;22555;-29
2022/11/27 06:21:28;;;;;;;16.90;12.30;;;;;;;;;;108933;1262;22505;-29
2022/11/27 06:24:02;;;;;;;16.60;12.50;;;;;;;;;;108959;1262;22581;-29
2022/11/27 06:26:34;;;;;;;17.20;12.70;;;;;;;;;;108898;1262;22497;-29
2022/11/27 06:29:03;;;;;;;16.80;12.60;;;;;;;;;;108991;1259;22536;-29
2022/11/27 06:31:34;;;;;;;15.70;12.10;;;;;;;;;;108905;1261;22522;-29
2022/11/27 06:34:06;;;;;;;15.60;11.80;;;;;;;;;;108923;1259;22776;-29
2022/11/27 06:36:39;;;;;;;15.80;11.80;;;;;;;;;;108961;1260;22902;-29
2022/11/27 06:39:10;;;;;;;15.70;12.10;;;;;;;;;;108971;1262;22506;-29
2022/11/27 06:41:42;;;;;;;15.80;11.90;;;;;;;;;;108804;1260;183762;-29
2022/11/27 06:44:13;;;;;;;16.40;12.20;;;;;;;;;;108939;1262;22541;-29
2022/11/27 06:46:43;;;;;;;16.70;12.40;;;;;;;;;;108904;1262;22669;-29
2022/11/27 06:49:12;;;;;;;17.30;12.80;;;;;;;;;;108957;1261;22547;-29
2022/11/27 06:51:41;;;;;;;19.30;12.90;;;;;;;;;;108950;1261;25280;-29
2022/11/27 06:54:09;;;;;;;16.40;12.00;;;;;;;;;;108904;1259;23860;-29
2022/11/27 06:56:42;;;;;;;17.60;12.70;;;;;;;;;;108874;1259;23909;-29
2022/11/27 06:59:13;;;;;;;16.20;11.70;;;;;;;;;;108981;1261;22504;-29
2022/11/27 07:01:47;;;;;;;14.70;11.20;;;;;;;;;;108978;1260;23896;-29
2022/11/27 07:04:19;;;;;;;15.40;11.80;;;;;;;;;;108944;1253;24317;-29
2022/11/27 07:06:48;;;;;;;15.80;12.40;;;;;;;;;;108912;1262;22477;-29
2022/11/27 07:09:17;;;;;;;17.30;12.50;;;;;;;;;;108951;1261;22975;-29
2022/11/27 07:11:48;;;;;;;16.50;11.80;;;;;;;;;;108940;1259;22502;-28
2022/11/27 07:14:17;;;;;;;16.60;12.40;;;;;;;;;;108942;1255;26005;-28
2022/11/27 07:16:46;;;;;;;16.10;12.30;;;;;;;;;;108888;1256;22637;-28
2022/11/27 07:19:15;;;;;;;16.40;12.30;;;;;;;;;;108970;1253;22590;-28
2022/11/27 07:21:46;;;;;;;15.60;12.50;;;;;;;;;;108930;1260;22582;-28
2022/11/27 07:24:17;;;;;;;15.00;12.30;;;;;;;;;;108959;1262;22553;-28
2022/11/27 07:26:46;;;;;;;15.10;12.20;;;;;;;;;;108947;1262;22859;-28
2022/11/27 07:29:17;;;;;;;17.00;12.50;;;;;;;;;;108951;1260;25222;-28
2022/11/27 07:31:50;;;;;;;16.30;12.00;;;;;;;;;;108938;1261;22560;-28
2022/11/27 07:34:18;;;;;;;15.80;12.00;;;;;;;;;;108951;1262;24192;-28
2022/11/27 07:36:49;;;;;;;16.40;12.70;;;;;;;;;;108895;1255;24286;-28
2022/11/27 07:39:19;;;;;;;15.90;12.30;;;;;;;;;;109051;1260;22806;-28
2022/11/27 07:41:51;;;;;;;16.80;12.10;;;;;;;;;;108952;1262;22542;-28
2022/11/27 07:44:20;;;;;;;17.20;12.00;;;;;;;;;;108986;1262;22545;-28
2022/11/27 07:46:49;;;;;;;16.80;11.80;;;;;;;;;;108941;1252;22569;-28
2022/11/27 07:49:21;;;;;;;16.00;12.00;;;;;;;;;;108952;1259;22541;-28
2022/11/27 07:51:52;;;;;;;17.20;13.20;;;;;;;;;;108987;1259;22651;-28
2022/11/27 07:54:23;;;;;;;;;;;;;;;;;;108997;1259;22515;-28
2022/11/27 07:56:51;;;;;;;17.30;12.50;;;;;;;;;;108958;1259;22522;-28
2022/11/27 07:59:23;;;;;;;15.70;11.50;;;;;;;;;;108895;1259;24013;-28
2022/11/27 08:01:54;;;;;;;16.00;12.10;;;;;;;;;;108888;1261;25483;-28
2022/11/27 08:04:23;;;;;;;15.20;11.70;;;;;;;;;;108913;1261;22526;-28
2022/11/27 08:06:52;;;;;;;15.70;12.50;;;;;;;;;;108918;1261;22526;-28
2022/11/27 08:09:23;;;;;;;15.90;12.10;;;;;;;;;;108937;1259;22689;-28
2022/11/27 08:11:54;;;;;;;17.30;12.80;;;;;;;;;;108989;1259;22491;-28
2022/11/27 08:14:23;;;;;;;17.40;13.30;;;;;;;;;;108961;1258;22543;-28
2022/11/27 08:16:55;;;;;;;16.20;12.30;;;;;;;;;;108965;1259;22543;-28
2022/11/27 08:19:31;;;;;;;15.80;12.50;;;;;;;;;;108947;1258;22608;-28
2022/11/27 08:22:00;;;;;;;14.80;12.00;;;;;;;;;;108911;1261;22530;-28
2022/11/27 08:24:28;;;;;;;15.10;12.30;;;;;;;;;;108781;1262;22489;-28
2022/11/27 08:26:57;;;;;;;16.40;12.80;;;;;;;;;;108933;1260;22513;-28
2022/11/27 08:29:28;;;;;;;15.40;12.30;;;;;;;;;;108943;1259;22772;-28
2022/11/27 08:32:00;;;;;;;15.60;12.40;;;;;;;;;;108994;1259;22503;-28
2022/11/27 08:34:32;;;;;;;16.20;13.00;;;;;;;;;;108989;1259;22604;-28
2022/11/27 08:37:01;;;;;;;15.60;12.40;;;;;;;;;;108984;1259;22501;-28
2022/11/27 08:39:31;;;;;;;16.60;13.00;;;;;;;;;;108950;1257;22505;-28
2022/11/27 08:42:01;;;;;;;15.00;12.70;;;;;;;;;;108950;1252;22510;-28
2022/11/27 08:44:34;;;;;;;15.80;12.70;;;;;;;;;;108951;1262;22606;-28
2022/11/27 08:47:05;;;;;;;17.50;13.70;;;;;;;;;;108958;1259;22705;-28
2022/11/27 08:49:34;;;;;;;15.70;13.00;;;;;;;;;;108887;1262;25216;-28
2022/11/27 08:52:06;;;;;;;15.90;12.40;;;;;;;;;;108921;1261;22578;-28
2022/11/27 08:54:35;;;;;;;17.10;12.80;;;;;;;;;;108942;1261;22526;-28
2022/11/27 08:57:07;;;;;;;16.10;12.30;;;;;;;;;;108900;1261;22536;-28
2022/11/27 08:59:36;;;;;;;16.80;13.00;;;;;;;;;;108905;1261;22623;-28
2022/11/27 09:02:09;;;;;;;15.40;12.40;;;;;;;;;;108984;1259;22653;-28
2022/11/27 09:04:38;;;;;;;16.70;13.10;;;;;;;;;;109021;1259;22504;-28
2022/11/27 09:07:12;;;;;;;16.60;12.90;;;;;;;;;;108984;1254;22599;-28
2022/11/27 09:09:42;;;;;;;16.30;12.30;;;;;;;;;;108963;1257;22534;-28
2022/11/27 09:12:12;;;;;;;16.80;12.90;;;;;;;;;;108955;1259;22553;-28
2022/11/27 09:14:41;;;;;;;16.10;12.40;;;;;;;;;;108956;1261;22550;-28
2022/11/27 09:17:12;;;;;;;16.10;13.00;;;;;;;;;;108939;1261;22550;-28
2022/11/27 09:19:47;;;;;;;16.50;12.70;;;;;;;;;;108897;1253;22537;-28
2022/11/27 09:22:16;;;;;;;17.10;12.60;;;;;;;;;;109017;1253;22546;-28
2022/11/27 09:24:47;;;;;;;15.90;12.90;;;;;;;;;;109003;1259;22756;-28
2022/11/27 09:27:19;;;;;;;15.00;12.60;;;;;;;;;;109021;1259;22494;-28
2022/11/27 09:29:48;;;;;;;17.20;12.80;;;;;;;;;;108976;1255;22538;-28
2022/11/27 09:32:21;;;;;;;17.60;13.00;;;;;;;;;;108923;1261;22557;-28
2022/11/27 09:34:53;;;;;;;17.10;13.00;;;;;;;;;;108945;1261;22491;-28
2022/11/27 09:37:22;;;;;;;17.00;13.00;;;;;;;;;;108892;1261;24183;-28
2022/11/27 09:39:54;;;;;;;16.20;12.90;;;;;;;;;;108942;1255;22616;-28
2022/11/27 09:42:40;;;;;;;16.30;13.30;;;;;;;;;;108963;1259;22630;-28
2022/11/27 09:45:18;;;;;;;16.60;13.40;;;;;;;;;;108947;1259;22535;-28
2022/11/27 09:47:53;;;;;;;15.70;12.60;;;;;;;;;;108970;1259;22696;-28
2022/11/27 09:50:25;;;;;;;;;;;;;;;;;;108952;1253;22487;-28
2022/11/27 09:52:59;;;;;;;17.70;13.50;;;;;;;;;;109006;1261;22581;-28
2022/11/27 09:55:37;;;;;;;16.70;13.40;;;;;;;;;;108922;1261;22613;-28
2022/11/27 09:58:13;;;;;;;16.70;13.60;;;;;;;;;;108943;1261;22577;-28
2022/11/27 10:00:44;;;;;;;17.60;13.60;;;;;;;;;;108902;1261;22504;-28
2022/11/27 10:03:22;;;;;;;18.70;14.50;;;;;;;;;;108884;1262;22514;-28
2022/11/27 10:06:05;;;;;;;16.10;13.80;;;;;;;;;;109009;1256;22688;-28
2022/11/27 10:08:45;;;;;;;17.60;14.00;;;;;;;;;;109004;1259;22579;-28
2022/11/27 10:11:26;;;;;;;19.40;14.40;;;;;;;;;;108959;1259;22629;-28
2022/11/27 10:14:20;;;;;;;19.20;14.00;;;;;;;;;;108940;1255;22502;-28
2022/11/27 10:17:01;;;;;;;18.10;14.30;;;;;;;;;;108895;1256;22554;-28
2022/11/27 10:19:38;;;;;;;16.90;13.50;;;;;;;;;;108914;1261;22501;-28
2022/11/27 10:22:17;;;;;;;18.10;14.10;;;;;;;;;;108951;1259;22558;-28
2022/11/27 10:24:59;;;;;;;17.30;14.10;;;;;;;;;;109016;1259;22487;-29
2022/11/27 10:27:40;;;;;;;16.80;13.60;;;;;;;;;;109020;1259;23906;-28
2022/11/27 10:30:17;;;;;;;17.00;14.10;;;;;;;;;;109014;1259;22550;-28
2022/11/27 10:32:50;;;;;;;19.90;15.20;;;;;;;;;;109032;1260;25925;-28
2022/11/27 10:35:21;;;;;;;16.90;14.00;;;;;;;;;;108976;1262;22547;-28
2022/11/27 10:37:54;;;;;;;18.40;15.00;;;;;;;;;;108952;1252;22590;-28
2022/11/27 10:40:29;;;;;;;18.80;14.10;;;;;;;;;;108967;1260;22488;-28
2022/11/27 10:43:07;;;;;;;17.50;13.40;;;;;;;;;;109053;1261;25937;-28
2022/11/27 10:45:48;;;;;;;17.40;14.00;;;;;;;;;;108982;1257;24179;-28
2022/11/27 10:48:17;;;;;;;18.50;13.90;;;;;;;;;;108968;1260;25405;-28
2022/11/27 10:50:47;;;;;;;16.30;13.60;;;;;;;;;;108982;1261;25916;-28
2022/11/27 10:53:26;;;;;;;16.90;13.60;;;;;;;;;;108965;1260;24186;-28
2022/11/27 10:56:33;;;;;;;16.50;13.40;;;;;;;;;;108988;1253;22544;-28
2022/11/27 10:59:07;;;;;;;17.60;14.40;;;;;;;;;;108997;1259;25276;-28
2022/11/27 11:01:48;;;;;;;17.90;14.30;;;;;;;;;;108985;1260;25332;-28
2022/11/27 11:04:26;;;;;;;16.00;13.50;;;;;;;;;;108950;1261;24212;-28
2022/11/27 11:06:57;;;;;;;17.60;14.50;;;;;;;;;;108937;1261;23739;-28
2022/11/27 11:09:29;;;;;;;18.30;14.20;;;;;;;;;;108924;1258;23926;-28
2022/11/27 11:12:15;;;;;;;16.40;14.10;;;;;;;;;;108919;1255;22598;-28
2022/11/27 11:14:55;;;;;;;18.60;14.20;;;;;;;;;;109006;1259;22524;-28
2022/11/27 11:17:30;;;;;;;16.80;13.50;;;;;;;;;;109013;1259;25711;-28
2022/11/27 11:19:59;;;;;;;17.90;14.30;;;;;;;;;;109006;1259;25276;-28
2022/11/27 11:22:30;;;;;;;16.70;13.60;;;;;;;;;;108979;1259;25225;-28
2022/11/27 11:24:59;;;;;;;17.50;14.20;;;;;;;;;;108972;1260;22607;-28
2022/11/27 11:27:31;;;;;;;24.80;19.80;;;;;;;;;;109396;1227;22738;-29
2022/11/27 11:30:21;;;;;;;27.30;22.60;;;;;;;;;;108615;1263;22557;-29
2022/11/27 11:33:01;;;;;;;30.60;23.00;;;;;;;;;;108509;1264;22589;-33
2022/11/27 11:35:38;;;;;;;20.50;16.30;;;;;;;;;;108580;1265;22574;-31
2022/11/27 11:38:18;;;;;;;17.70;13.40;;;;;;;;;;108577;1265;22559;-31
2022/11/27 11:41:04;;;;;;;15.80;12.80;;;;;;;;;;108555;1259;22635;-31
2022/11/27 11:43:37;;;;;;;15.10;11.70;;;;;;;;;;108522;1261;25933;-31
2022/11/27 11:46:17;;;;;;;;;;;;;;;;;;108561;1264;22483;-31
2022/11/27 11:48:59;;;;;;;13.90;11.40;;;;;;;;;;108556;1264;22542;-31
2022/11/27 11:51:55;;;;;;;14.30;11.20;;;;;;;;;;108485;1264;22586;-31
2022/11/27 11:54:42;;;;;;;13.20;10.60;;;;;;;;;;108487;1265;22644;-29
2022/11/27 11:57:55;;;;;;;14.20;11.30;;;;;;;;;;108540;1265;22574;-31
2022/11/27 12:00:42;;;;;;;18.30;12.70;;;;;;;;;;108462;1264;23197;-31
2022/11/27 12:03:33;;;;;;;21.70;13.80;;;;;;;;;;108556;1265;22575;-30
2022/11/27 12:06:28;;;;;;;20.40;13.80;;;;;;;;;;108614;1259;23137;-32
2022/11/27 12:09:28;;;;;;;18.20;12.50;;;;;;;;;;108555;1265;22569;-30
2022/11/27 12:12:05;;;;;;;20.60;14.10;;;;;;;;;;108534;1263;22578;-30
2022/11/27 12:14:46;;;;;;;23.20;14.20;;;;;;;;;;108523;1265;22731;-32
2022/11/27 12:17:49;;;;;;;21.90;14.60;;;;;;;;;;109059;1264;24240;-32
2022/11/27 12:20:27;;;;;;;22.00;14.90;;;;;;;;;;108992;1265;22626;-29
2022/11/27 12:23:45;;;;;;;21.00;14.70;;;;;;;;;;108945;1265;22565;-30
2022/11/27 12:26:29;;;;;;;22.10;15.00;;;;;;;;;;108705;1265;22506;-30
2022/11/27 12:29:37;;;;;;;20.80;15.00;;;;;;;;;;108639;1265;23841;-29
2022/11/27 12:32:32;;;;;;;22.50;15.60;;;;;;;;;;108644;1265;22568;-29
2022/11/27 12:35:22;;;;;;;21.30;14.90;;;;;;;;;;108672;1265;22585;-29
2022/11/27 12:38:11;;;;;;;21.10;15.00;;;;;;;;;;108708;1265;22640;-29
2022/11/27 12:41:07;;;;;;;22.80;14.90;;;;;;;;;;108631;1265;22554;-29
2022/11/27 12:43:54;;;;;;;21.60;15.90;;;;;;;;;;108690;1264;22567;-29
2022/11/27 12:46:38;;;;;;;22.40;15.20;;;;;;;;;;108727;1263;22519;-29
2022/11/27 12:49:17;;;;;;;22.40;15.60;;;;;;;;;;108731;1262;24241;-29
2022/11/27 12:51:53;;;;;;;20.80;16.00;;;;;;;;;;108750;1255;26363;-29
2022/11/27 12:54:32;;;;;;;25.00;16.50;;;;;;;;;;108642;1265;22630;-29
2022/11/27 12:57:06;;;;;;;22.90;17.00;;;;;;;;;;108721;1265;26452;-29
2022/11/27 12:59:45;;;;;;;23.30;16.40;;;;;;;;;;108757;1258;22665;-29
2022/11/27 13:02:35;;;;;;;23.40;16.30;;;;;;;;;;108716;1263;22548;-29
2022/11/27 13:05:11;;;;;;;21.80;15.80;;;;;;;;;;108657;1263;22564;-29
2022/11/27 13:07:45;;;;;;;22.60;16.10;;;;;;;;;;108697;1264;22878;-29
2022/11/27 13:10:23;;;;;;;22.80;16.30;;;;;;;;;;108734;1255;22541;-29
2022/11/27 13:13:02;;;;;;;22.50;16.50;;;;;;;;;;108772;1265;22565;-29
2022/11/27 13:15:37;;;;;;;24.40;16.90;;;;;;;;;;108677;1265;22510;-29
2022/11/27 13:18:19;;;;;;;23.80;16.90;;;;;;;;;;108725;1262;22566;-29
2022/11/27 13:20:51;;;;;;;22.80;16.90;;;;;;;;;;108677;1260;22604;-29
2022/11/27 13:23:22;;;;;;;21.80;16.00;;;;;;;;;;108719;1260;22576;-29
2022/11/27 13:25:55;;;;;;;23.10;16.10;;;;;;;;;;108720;1263;22580;-29
2022/11/27 13:28:33;;;;;;;23.20;16.60;;;;;;;;;;108717;1265;22559;-29
2022/11/27 13:31:03;;;;;;;22.40;16.20;;;;;;;;;;108735;1263;22504;-29
2022/11/27 13:33:38;;;;;;;22.00;16.80;;;;;;;;;;108702;1263;22573;-29
2022/11/27 13:36:19;;;;;;;23.00;15.50;;;;;;;;;;108646;1264;22560;-29
2022/11/27 13:38:55;;;;;;;22.50;16.50;;;;;;;;;;108750;1265;22686;-29
2022/11/27 13:41:34;;;;;;;22.20;15.70;;;;;;;;;;108772;1265;22577;-29
2022/11/27 13:44:04;;;;;;;22.10;16.40;;;;;;;;;;108846;1265;22539;-29
2022/11/27 13:46:48;;;;;;;23.40;16.40;;;;;;;;;;108698;1265;25209;-29
2022/11/27 13:49:27;;;;;;;21.70;15.40;;;;;;;;;;108727;1263;22545;-29
2022/11/27 13:52:11;;;;;;;22.50;16.20;;;;;;;;;;108722;1265;22555;-31
2022/11/27 13:54:51;;;;;;;21.40;16.30;;;;;;;;;;108710;1264;22530;-31
2022/11/27 13:57:22;;;;;;;20.50;15.00;;;;;;;;;;108747;1265;22678;-31
2022/11/27 14:00:01;;;;;;;21.00;15.90;;;;;;;;;;108730;1263;22513;-31
2022/11/27 14:02:45;;;;;;;21.90;16.30;;;;;;;;;;108740;1265;24202;-32
2022/11/27 14:05:17;;;;;;;22.90;15.70;;;;;;;;;;108694;1263;22639;-32
2022/11/27 14:07:48;;;;;;;21.50;15.90;;;;;;;;;;108699;1264;22560;-32
2022/11/27 14:10:21;;;;;;;21.50;15.70;;;;;;;;;;108749;1265;22790;-32
2022/11/27 14:12:56;;;;;;;20.00;15.10;;;;;;;;;;108754;1265;22552;-29
2022/11/27 14:15:27;;;;;;;20.00;15.30;;;;;;;;;;108698;1263;22509;-29
2022/11/27 14:18:14;;;;;;;20.40;15.60;;;;;;;;;;108734;1263;22543;-29
2022/11/27 14:20:50;;;;;;;20.30;15.00;;;;;;;;;;108707;1262;22540;-29
2022/11/27 14:23:32;;;;;;;20.50;15.60;;;;;;;;;;108723;1264;23400;-29
2022/11/27 14:26:16;;;;;;;19.00;15.30;;;;;;;;;;108696;1257;22540;-29
2022/11/27 14:28:49;;;;;;;19.70;16.10;;;;;;;;;;108611;1265;22553;-27
2022/11/27 14:31:27;;;;;;;19.30;14.80;;;;;;;;;;108735;1265;22544;-28
2022/11/27 14:33:57;;;;;;;17.80;14.80;;;;;;;;;;108721;1259;22560;-28
2022/11/27 14:36:30;;;;;;;19.10;14.60;;;;;;;;;;108790;1265;22548;-29
2022/11/27 14:38:59;;;;;;;;;;;;;;;;;;108803;1265;22632;-28
2022/11/27 14:41:29;;;;;;;19.80;14.90;;;;;;;;;;108573;1265;303367;-27
2022/11/27 14:44:02;;;;;;;20.50;15.90;;;;;;;;;;108702;1265;22507;-27
2022/11/27 14:46:36;;;;;;;19.10;14.80;;;;;;;;;;108683;1263;22579;-27
2022/11/27 14:49:05;;;;;;;19.50;14.40;;;;;;;;;;108775;1263;22613;-27